Time;durP1;ratioP1;P1;durP2;ratioP2;P2;SDS_P1;SDS_P2;PMS_P1;PMS_P2;Temp;Humidity;BMP_temperature;BMP_pressure;BME280_temperature;BME280_humidity;BME280_pressure;Samples;Min_cycle;Max_cycle;Signal;HPM_P1;HPM_P2
2022/08/25 00:01:17;;;;;;;10.48;6.47;;;20.40;83.20;;;;;;4939081;28;20035;-68
2022/08/25 00:03:44;;;;;;;12.75;5.65;;;20.40;82.90;;;;;;4935900;29;20131;-71
2022/08/25 00:06:10;;;;;;;6.70;5.82;;;20.40;83.60;;;;;;4937461;29;20047;-67
2022/08/25 00:08:37;;;;;;;8.50;5.40;;;20.40;84.30;;;;;;4935486;29;20074;-67
2022/08/25 00:11:06;;;;;;;9.93;5.82;;;20.30;84.70;;;;;;4940772;28;20437;-68
2022/08/25 00:13:32;;;;;;;7.95;6.00;;;20.30;85.00;;;;;;4935276;28;20347;-68
2022/08/25 00:15:57;;;;;;;11.43;6.18;;;20.20;84.80;;;;;;4934215;29;20054;-69
2022/08/25 00:18:23;;;;;;;11.70;6.68;;;20.20;85.40;;;;;;4944580;29;20023;-68
2022/08/25 00:20:50;;;;;;;10.82;5.25;;;20.10;85.80;;;;;;4937966;28;20651;-68
2022/08/25 00:23:16;;;;;;;10.25;5.63;;;20.10;86.00;;;;;;4935311;29;20115;-68
2022/08/25 00:25:42;;;;;;;10.77;6.72;;;20.10;86.70;;;;;;4938207;29;20260;-69
2022/08/25 00:28:09;;;;;;;9.88;6.30;;;20.00;86.20;;;;;;4933511;29;20024;-68
2022/08/25 00:30:35;;;;;;;10.57;5.78;;;20.00;85.60;;;;;;4935310;29;20480;-68
2022/08/25 00:33:01;;;;;;;16.48;7.35;;;20.00;85.50;;;;;;4936087;28;20123;-67
2022/08/25 00:35:26;;;;;;;9.65;6.28;;;20.00;86.10;;;;;;4931853;28;20597;-68
2022/08/25 00:37:52;;;;;;;11.25;6.70;;;20.10;86.10;;;;;;4933827;29;20031;-69
2022/08/25 00:40:18;;;;;;;7.65;6.25;;;20.10;85.80;;;;;;4932000;28;20024;-68
2022/08/25 00:42:43;;;;;;;8.45;6.65;;;20.10;86.10;;;;;;4931617;29;20035;-68
2022/08/25 00:45:09;;;;;;;8.73;6.65;;;20.20;85.50;;;;;;4931820;28;20070;-67
2022/08/25 00:47:35;;;;;;;8.85;6.60;;;20.10;87.10;;;;;;4936757;29;20055;-69
2022/08/25 00:50:04;;;;;;;7.55;5.63;;;20.00;88.50;;;;;;4932975;29;20028;-67
2022/08/25 00:52:40;;;;;;;18.20;7.38;;;19.90;88.20;;;;;;4936884;28;20035;-67
2022/08/25 00:55:17;;;;;;;9.00;6.57;;;19.80;89.80;;;;;;4936660;29;20031;-69
2022/08/25 00:57:46;;;;;;;10.15;6.53;;;19.70;90.40;;;;;;4935451;29;20031;-66
2022/08/25 01:00:18;;;;;;;9.52;7.03;;;19.60;90.60;;;;;;4942200;29;20490;-69
2022/08/25 01:02:44;;;;;;;8.82;6.80;;;19.60;91.20;;;;;;4932860;28;20401;-68
2022/08/25 01:05:10;;;;;;;9.27;7.03;;;19.50;91.30;;;;;;4931788;29;20051;-68
2022/08/25 01:07:36;;;;;;;8.77;6.10;;;19.50;91.40;;;;;;4934482;28;20032;-67
2022/08/25 01:10:02;;;;;;;8.43;6.68;;;19.50;92.00;;;;;;4936537;28;20059;-68
2022/08/25 01:12:28;;;;;;;14.27;7.80;;;19.50;91.80;;;;;;4931483;28;20454;-68
2022/08/25 01:14:55;;;;;;;7.35;6.03;;;19.50;92.20;;;;;;4935492;28;20034;-67
2022/08/25 01:17:20;;;;;;;7.68;6.35;;;19.50;92.10;;;;;;4934509;28;20036;-69
2022/08/25 01:19:46;;;;;;;15.23;8.57;;;19.50;92.20;;;;;;4946734;28;20047;-69
2022/08/25 01:22:12;;;;;;;10.93;7.55;;;19.50;92.90;;;;;;4934902;29;20386;-66
2022/08/25 01:24:48;;;;;;;11.45;7.35;;;19.50;93.20;;;;;;4933590;29;20504;-69
2022/08/25 01:27:14;;;;;;;10.90;6.78;;;19.40;93.60;;;;;;4933869;28;20039;-67
2022/08/25 01:29:40;;;;;;;9.45;7.40;;;19.40;93.90;;;;;;4930221;29;20070;-68
2022/08/25 01:32:09;;;;;;;15.23;7.30;;;19.40;94.20;;;;;;4947289;23;20476;-75
2022/08/25 01:34:42;;;;;;;10.77;6.88;;;19.40;94.50;;;;;;4912239;29;20397;-75
2022/08/25 01:37:10;;;;;;;10.27;6.88;;;19.40;94.30;;;;;;4912414;29;20020;-75
2022/08/25 01:39:36;;;;;;;10.95;7.10;;;19.40;94.60;;;;;;4912705;29;20036;-75
2022/08/25 01:42:19;;;;;;;11.00;7.43;;;19.40;94.70;;;;;;4911745;29;20074;-74
2022/08/25 01:44:46;;;;;;;15.70;7.32;;;19.40;94.50;;;;;;4911868;29;20059;-75
2022/08/25 01:47:13;;;;;;;11.57;6.75;;;19.40;94.50;;;;;;4912798;29;20035;-74
2022/08/25 01:49:38;;;;;;;14.18;8.27;;;19.40;94.60;;;;;;4912366;29;20028;-74
2022/08/25 01:52:23;;;;;;;16.83;8.85;;;19.40;94.50;;;;;;4913016;29;20024;-74
2022/08/25 01:54:49;;;;;;;10.65;7.93;;;19.40;95.60;;;;;;4917562;29;20560;-79
2022/08/25 01:57:14;;;;;;;10.82;7.47;;;19.40;95.90;;;;;;4915655;29;20036;-75
2022/08/25 01:59:40;;;;;;;14.60;7.97;;;19.30;96.20;;;;;;4916629;29;20032;-75
2022/08/25 02:02:06;;;;;;;10.73;8.13;;;19.30;96.00;;;;;;4917030;29;20024;-76
2022/08/25 02:04:31;;;;;;;10.75;8.02;;;19.40;96.10;;;;;;4916099;29;20032;-74
2022/08/25 02:06:59;;;;;;;10.82;8.02;;;19.50;96.00;;;;;;4916704;29;20420;-75
2022/08/25 02:09:24;;;;;;;10.25;7.63;;;19.60;95.50;;;;;;4916052;29;20055;-75
2022/08/25 02:11:50;;;;;;;16.70;8.63;;;19.60;95.70;;;;;;4916366;29;20057;-75
2022/08/25 02:14:16;;;;;;;12.15;7.53;;;19.50;95.80;;;;;;4916134;29;20351;-75
2022/08/25 02:16:47;;;;;;;12.75;8.88;;;19.50;96.20;;;;;;4914058;29;20059;-74
2022/08/25 02:19:12;;;;;;;12.65;7.80;;;19.40;96.90;;;;;;4915474;29;20028;-75
2022/08/25 02:21:38;;;;;;;13.30;8.88;;;19.40;97.10;;;;;;4915999;29;20036;-74
2022/08/25 02:24:05;;;;;;;14.88;9.77;;;19.30;97.90;;;;;;4916485;29;20023;-74
2022/08/25 02:26:30;;;;;;;20.77;8.68;;;19.30;98.30;;;;;;4915683;29;20168;-75
2022/08/25 02:28:56;;;;;;;10.10;7.43;;;19.20;98.10;;;;;;4916099;29;20119;-75
2022/08/25 02:31:23;;;;;;;13.93;8.77;;;19.20;98.90;;;;;;4915773;29;20032;-75
2022/08/25 02:33:51;;;;;;;12.23;9.05;;;19.20;99.10;;;;;;4913815;29;20055;-74
2022/08/25 02:36:17;;;;;;;12.48;7.40;;;19.20;99.40;;;;;;4915939;29;20051;-74
2022/08/25 02:38:43;;;;;;;11.48;8.63;;;19.10;99.50;;;;;;4915525;29;20024;-73
2022/08/25 02:41:15;;;;;;;12.80;8.38;;;19.30;99.30;;;;;;4915465;29;20401;-73
2022/08/25 02:43:42;;;;;;;11.38;7.57;;;19.40;99.10;;;;;;4914930;29;20386;-75
2022/08/25 02:46:09;;;;;;;9.68;7.43;;;19.50;98.60;;;;;;4915977;29;20024;-75
2022/08/25 02:48:34;;;;;;;14.68;9.90;;;19.60;98.30;;;;;;4912754;29;20939;-75
2022/08/25 02:51:01;;;;;;;13.13;8.77;;;19.60;98.20;;;;;;4916007;29;20032;-74
2022/08/25 02:53:28;;;;;;;13.82;8.90;;;19.50;98.40;;;;;;4915169;29;20036;-74
2022/08/25 02:55:54;;;;;;;12.95;9.43;;;19.40;98.60;;;;;;4915924;29;20032;-74
2022/08/25 02:58:20;;;;;;;9.98;8.05;;;19.40;98.40;;;;;;4914905;29;20024;-74
2022/08/25 03:00:46;;;;;;;13.77;9.55;;;19.20;98.60;;;;;;4915481;29;20452;-73
2022/08/25 03:03:12;;;;;;;11.45;9.32;;;19.40;98.60;;;;;;4913160;29;20527;-74
2022/08/25 03:05:38;;;;;;;12.68;8.80;;;19.30;98.60;;;;;;4913231;29;20040;-75
2022/08/25 03:08:04;;;;;;;8.80;7.68;;;19.20;98.60;;;;;;4915628;29;20027;-75
2022/08/25 03:10:30;;;;;;;12.45;8.50;;;19.30;98.60;;;;;;4914737;29;20040;-73
2022/08/25 03:12:56;;;;;;;10.77;7.10;;;19.40;98.40;;;;;;4915020;29;20032;-73
2022/08/25 03:15:24;;;;;;;11.13;8.65;;;19.60;98.10;;;;;;4915300;29;20036;-75
2022/08/25 03:17:50;;;;;;;11.73;8.40;;;19.70;98.00;;;;;;4914634;29;20461;-75
2022/08/25 03:20:15;;;;;;;12.18;8.15;;;19.70;97.90;;;;;;4914405;29;20056;-73
2022/08/25 03:22:41;;;;;;;12.40;8.20;;;19.60;98.00;;;;;;4914776;29;20043;-74
2022/08/25 03:27:52;;;;;;;11.07;8.73;;;19.50;98.10;;;;;;4914946;29;20039;-73
2022/08/25 03:30:18;;;;;;;11.50;9.45;;;19.50;98.00;;;;;;4915099;29;20032;-75
2022/08/25 03:32:43;;;;;;;12.20;7.88;;;19.50;97.90;;;;;;4914360;29;20104;-74
2022/08/25 03:35:09;;;;;;;13.10;10.10;;;19.50;97.90;;;;;;4914096;29;20035;-76
2022/08/25 03:37:36;;;;;;;19.10;15.00;;;19.50;97.70;;;;;;4914896;29;20039;-76
2022/08/25 03:40:08;;;;;;;12.05;9.05;;;19.50;97.70;;;;;;4914485;29;20035;-75
2022/08/25 03:42:34;;;;;;;22.27;14.25;;;19.50;97.50;;;;;;4914447;29;20076;-75
2022/08/25 03:45:03;;;;;;;26.88;19.35;;;19.30;99.10;;;;;;4915033;29;20461;-76
2022/08/25 03:47:29;;;;;;;17.73;11.55;;;19.20;99.90;;;;;;4913766;29;20032;-74
2022/08/25 03:49:55;;;;;;;18.30;13.85;;;19.00;99.80;;;;;;4914866;29;20438;-74
2022/08/25 03:52:20;;;;;;;13.18;10.80;;;19.00;99.90;;;;;;4913067;29;20036;-76
2022/08/25 03:54:46;;;;;;;19.95;13.82;;;19.00;99.90;;;;;;4914122;29;20040;-75
2022/08/25 03:57:12;;;;;;;22.25;15.18;;;18.90;99.90;;;;;;4914108;29;20087;-75
2022/08/25 03:59:37;;;;;;;23.98;19.00;;;18.80;99.90;;;;;;4914646;29;20032;-75
2022/08/25 04:02:04;;;;;;;20.52;15.15;;;18.70;99.90;;;;;;4907653;29;20036;-75
2022/08/25 04:04:30;;;;;;;16.48;10.82;;;18.70;99.90;;;;;;4909302;29;20565;-75
2022/08/25 04:06:56;;;;;;;16.30;12.15;;;18.60;99.90;;;;;;4913318;29;20040;-75
2022/08/25 04:09:21;;;;;;;13.95;10.68;;;18.60;99.90;;;;;;4910635;29;20531;-75
2022/08/25 04:11:47;;;;;;;16.20;11.70;;;18.60;99.90;;;;;;4906563;29;20504;-75
2022/08/25 04:14:13;;;;;;;17.98;10.65;;;18.50;99.90;;;;;;4912325;29;20516;-75
2022/08/25 04:16:39;;;;;;;23.40;11.48;;;18.40;99.90;;;;;;4911939;29;20525;-77
2022/08/25 04:19:08;;;;;;;18.50;12.45;;;18.40;99.90;;;;;;4911017;29;20024;-76
2022/08/25 04:21:35;;;;;;;19.40;12.40;;;18.30;99.90;;;;;;4911745;29;20043;-76
2022/08/25 04:24:01;;;;;;;23.25;13.98;;;18.30;99.90;;;;;;4913353;29;20449;-75
2022/08/25 04:26:36;;;;;;;17.02;12.45;;;18.30;99.90;;;;;;4914248;29;20036;-76
2022/08/25 04:29:02;;;;;;;15.85;11.60;;;18.30;99.90;;;;;;4910895;29;20031;-76
2022/08/25 04:31:29;;;;;;;19.88;11.10;;;18.30;99.90;;;;;;4911756;29;20039;-76
2022/08/25 04:33:56;;;;;;;19.15;14.27;;;18.40;99.90;;;;;;4911941;29;20409;-76
2022/08/25 04:36:21;;;;;;;25.38;13.30;;;18.40;99.90;;;;;;4913898;29;20024;-77
2022/08/25 04:38:48;;;;;;;18.70;12.27;;;18.40;99.90;;;;;;4912278;29;20035;-76
2022/08/25 04:41:17;;;;;;;15.63;12.07;;;18.50;99.90;;;;;;4913551;29;20032;-74
2022/08/25 04:43:43;;;;;;;15.13;12.10;;;18.60;99.90;;;;;;4909214;29;20042;-76
2022/08/25 04:46:17;;;;;;;18.13;12.95;;;18.60;99.90;;;;;;4909625;29;20516;-74
2022/08/25 04:48:43;;;;;;;16.27;11.50;;;18.70;99.90;;;;;;4911566;29;20046;-76
2022/08/25 04:51:12;;;;;;;17.63;12.05;;;18.60;99.90;;;;;;4911873;29;20403;-77
2022/08/25 04:53:39;;;;;;;16.73;11.23;;;18.70;99.90;;;;;;4911763;29;20092;-74
2022/08/25 04:56:06;;;;;;;17.48;13.43;;;18.70;99.90;;;;;;4913563;29;20505;-76
2022/08/25 04:58:32;;;;;;;15.50;12.43;;;18.70;99.90;;;;;;4913040;29;20024;-75
2022/08/25 05:01:06;;;;;;;16.75;12.05;;;18.80;99.90;;;;;;4912862;29;20020;-77
2022/08/25 05:03:32;;;;;;;22.65;11.30;;;18.80;99.90;;;;;;4911620;29;20032;-76
2022/08/25 05:05:57;;;;;;;18.75;12.07;;;18.80;99.90;;;;;;4911753;29;20040;-77
2022/08/25 05:08:23;;;;;;;17.05;12.07;;;18.80;99.90;;;;;;4911011;29;20032;-77
2022/08/25 05:10:49;;;;;;;16.42;12.20;;;18.90;99.90;;;;;;4912826;29;20028;-77
2022/08/25 05:13:15;;;;;;;17.70;13.40;;;19.00;99.90;;;;;;4914033;29;20127;-78
2022/08/25 05:15:49;;;;;;;20.92;14.02;;;19.20;99.90;;;;;;4913385;29;20032;-77
2022/08/25 05:18:16;;;;;;;22.55;13.50;;;19.40;99.90;;;;;;4913502;29;20118;-77
2022/08/25 05:20:42;;;;;;;22.70;15.32;;;19.50;99.90;;;;;;4912438;29;20032;-78
2022/08/25 05:23:07;;;;;;;18.98;14.48;;;19.60;99.90;;;;;;4913278;29;20102;-77
2022/08/25 05:25:33;;;;;;;21.17;14.13;;;19.70;99.90;;;;;;4913123;29;20512;-83
2022/08/25 05:27:59;;;;;;;22.38;12.23;;;19.80;99.90;;;;;;4913666;29;20028;-78
2022/08/25 05:30:24;;;;;;;23.45;14.70;;;19.90;99.90;;;;;;4915107;29;20897;-79
2022/08/25 05:32:50;;;;;;;22.85;15.82;;;19.90;99.90;;;;;;4913661;29;20032;-78
2022/08/25 05:35:15;;;;;;;24.35;15.73;;;19.80;99.90;;;;;;4913935;29;20477;-77
2022/08/25 05:37:41;;;;;;;22.63;15.45;;;19.60;99.90;;;;;;4912726;29;20067;-78
2022/08/25 05:40:08;;;;;;;22.58;15.57;;;19.50;99.90;;;;;;4913471;29;20016;-78
2022/08/25 05:42:34;;;;;;;20.73;15.65;;;19.40;99.90;;;;;;4914361;29;20404;-77
2022/08/25 05:44:59;;;;;;;26.55;14.73;;;19.40;99.90;;;;;;4914974;29;20080;-77
2022/08/25 05:47:25;;;;;;;20.35;14.88;;;19.40;99.90;;;;;;4910527;29;20024;-73
2022/08/25 05:49:50;;;;;;;18.15;13.73;;;19.40;99.90;;;;;;4910087;29;20031;-75
2022/08/25 05:52:16;;;;;;;16.55;14.02;;;19.50;99.90;;;;;;4911417;29;20036;-74
2022/08/25 05:54:41;;;;;;;25.08;15.60;;;19.70;99.90;;;;;;4911303;29;20035;-76
2022/08/25 05:57:08;;;;;;;26.92;15.45;;;19.80;99.90;;;;;;4910994;29;20055;-75
2022/08/25 05:59:34;;;;;;;20.67;15.57;;;20.00;99.90;;;;;;4910463;29;20075;-75
2022/08/25 06:04:43;;;;;;;21.95;14.40;;;20.20;99.90;;;;;;4911338;29;20047;-75
2022/08/25 06:07:09;;;;;;;21.98;13.88;;;20.20;99.90;;;;;;4911022;29;20044;-75
2022/08/25 06:09:38;;;;;;;19.90;15.13;;;20.40;99.90;;;;;;4909298;29;20738;-74
2022/08/25 06:12:03;;;;;;;23.42;15.05;;;20.60;99.90;;;;;;4912106;29;20544;-74
2022/08/25 06:14:29;;;;;;;23.90;16.73;;;20.80;99.90;;;;;;4910619;29;20043;-72
2022/08/25 06:16:55;;;;;;;22.80;14.13;;;20.90;99.90;;;;;;4910133;29;20028;-73
2022/08/25 06:19:22;;;;;;;21.73;15.13;;;21.00;99.90;;;;;;4912068;29;20040;-73
2022/08/25 06:21:48;;;;;;;19.65;14.75;;;21.00;99.90;;;;;;4910675;29;20536;-73
2022/08/25 06:24:13;;;;;;;19.00;16.05;;;21.10;99.90;;;;;;4912236;29;20040;-74
2022/08/25 06:26:39;;;;;;;20.33;13.70;;;21.00;99.90;;;;;;4908926;29;20497;-75
2022/08/25 06:29:04;;;;;;;23.52;14.98;;;21.10;99.90;;;;;;4912977;29;20103;-77
2022/08/25 06:31:30;;;;;;;18.73;11.88;;;21.20;99.90;;;;;;4910683;29;20192;-79
2022/08/25 06:33:57;;;;;;;25.35;14.75;;;21.30;99.90;;;;;;4912631;29;20071;-79
2022/08/25 06:36:23;;;;;;;18.77;11.57;;;21.60;99.90;;;;;;4913923;29;20035;-79
2022/08/25 06:38:49;;;;;;;21.23;13.35;;;21.80;99.90;;;;;;4913712;29;20053;-74
2022/08/25 06:41:15;;;;;;;27.20;15.25;;;21.90;99.90;;;;;;4915637;29;20484;-80
2022/08/25 06:43:41;;;;;;;16.48;14.27;;;21.70;99.90;;;;;;4917945;29;20123;-78
2022/08/25 06:46:08;;;;;;;19.83;13.48;;;21.70;99.90;;;;;;4915384;29;20572;-76
2022/08/25 06:48:34;;;;;;;17.02;12.45;;;21.70;99.90;;;;;;4916438;29;20032;-79
2022/08/25 06:51:03;;;;;;;16.83;13.80;;;21.80;99.90;;;;;;4918023;29;20039;-79
2022/08/25 06:53:29;;;;;;;18.63;13.50;;;21.90;99.90;;;;;;4916211;29;20405;-77
2022/08/25 06:55:56;;;;;;;16.73;13.45;;;22.00;99.90;;;;;;4917652;29;20023;-73
2022/08/25 06:58:22;;;;;;;17.98;13.10;;;22.20;99.90;;;;;;4915495;29;20119;-72
2022/08/25 07:00:48;;;;;;;21.95;14.57;;;22.30;99.90;;;;;;4914014;29;20176;-72
2022/08/25 07:03:13;;;;;;;19.42;14.20;;;22.40;99.90;;;;;;4915169;29;20058;-74
2022/08/25 07:05:39;;;;;;;18.23;13.02;;;22.30;99.90;;;;;;4912660;29;20020;-73
2022/08/25 07:08:05;;;;;;;19.50;14.05;;;22.30;99.90;;;;;;4913117;29;20040;-72
2022/08/25 07:10:31;;;;;;;18.75;13.40;;;22.30;99.90;;;;;;4913408;29;20111;-71
2022/08/25 07:12:56;;;;;;;16.58;13.35;;;22.20;99.90;;;;;;4913034;29;20489;-75
2022/08/25 07:15:21;;;;;;;19.80;13.55;;;22.10;99.90;;;;;;4915642;29;20025;-75
2022/08/25 07:17:48;;;;;;;21.20;13.10;;;22.20;99.90;;;;;;4913781;29;20127;-74
2022/08/25 07:20:13;;;;;;;20.65;13.50;;;22.20;99.90;;;;;;4912082;29;20059;-75
2022/08/25 07:22:39;;;;;;;16.80;13.70;;;22.30;99.90;;;;;;4915397;29;20051;-82
2022/08/25 07:25:06;;;;;;;13.45;11.57;;;22.40;99.90;;;;;;4913659;29;20028;-77
2022/08/25 07:27:31;;;;;;;21.40;13.50;;;22.50;99.90;;;;;;4914693;29;20393;-79
2022/08/25 07:29:57;;;;;;;21.52;12.52;;;22.70;99.90;;;;;;4921631;29;20020;-80
2022/08/25 07:32:22;;;;;;;17.38;12.00;;;22.80;99.90;;;;;;4929349;23;20485;-81
2022/08/25 07:37:32;;;;;;;16.73;12.02;;;23.10;99.90;;;;;;4906752;29;20035;-84
2022/08/25 07:40:02;;;;;;;17.77;11.77;;;23.20;99.90;;;;;;4905766;29;20028;-82
2022/08/25 07:42:28;;;;;;;20.27;12.55;;;23.30;99.90;;;;;;4905687;29;20110;-81
2022/08/25 07:44:53;;;;;;;17.95;12.15;;;23.30;99.90;;;;;;4905935;29;20269;-82
2022/08/25 07:47:18;;;;;;;16.50;12.82;;;23.20;99.90;;;;;;4904893;29;20028;-84
2022/08/25 07:49:44;;;;;;;16.30;12.75;;;23.20;99.90;;;;;;4905094;29;20080;-85
2022/08/25 07:52:10;;;;;;;16.90;12.43;;;23.30;99.90;;;;;;4905567;29;20032;-83
2022/08/25 07:54:35;;;;;;;20.55;12.40;;;23.50;99.90;;;;;;4904481;29;20109;-81
2022/08/25 07:57:03;;;;;;;16.73;13.25;;;23.70;99.90;;;;;;4904074;29;20104;-81
2022/08/25 07:59:28;;;;;;;15.80;11.85;;;23.80;99.90;;;;;;4906433;29;20036;-91
2022/08/25 08:01:54;;;;;;;14.55;10.13;;;23.90;99.90;;;;;;4905858;29;20055;-84
2022/08/25 08:04:19;;;;;;;17.77;11.75;;;23.90;99.90;;;;;;4906852;29;20092;-84
2022/08/25 08:06:45;;;;;;;16.40;10.52;;;24.00;99.90;;;;;;4906525;29;21463;-86
2022/08/25 08:09:11;;;;;;;27.92;13.65;;;24.20;99.90;;;;;;4906539;29;20040;-84
2022/08/25 08:11:39;;;;;;;14.52;11.43;;;24.40;99.90;;;;;;4904583;29;20040;-87
2022/08/25 08:14:06;;;;;;;13.63;10.60;;;24.60;99.80;;;;;;4905560;29;20033;-85
2022/08/25 08:16:32;;;;;;;12.57;11.15;;;24.70;99.60;;;;;;4905260;29;20025;-86
2022/08/25 08:18:58;;;;;;;17.02;12.20;;;24.70;99.50;;;;;;4906283;29;20036;-86
2022/08/25 08:21:27;;;;;;;14.40;11.10;;;24.60;99.40;;;;;;4905969;29;20027;-87
2022/08/25 08:23:54;;;;;;;16.27;10.98;;;24.60;99.60;;;;;;4905867;29;20490;-84
2022/08/25 08:26:20;;;;;;;16.25;10.60;;;24.70;99.50;;;;;;4905093;29;20375;-81
2022/08/25 08:28:46;;;;;;;18.33;11.05;;;24.70;99.60;;;;;;4905626;29;20119;-81
2022/08/25 08:31:12;;;;;;;17.10;10.45;;;24.90;99.30;;;;;;4905568;29;20032;-81
2022/08/25 08:33:38;;;;;;;14.40;10.57;;;25.10;98.90;;;;;;4905814;29;20028;-85
2022/08/25 08:36:07;;;;;;;16.40;11.18;;;25.10;98.80;;;;;;4905521;29;20092;-83
2022/08/25 08:38:34;;;;;;;14.93;11.07;;;25.10;98.60;;;;;;4905816;29;20039;-80
2022/08/25 08:44:21;;;;;;;20.05;11.48;;;25.10;98.50;;;;;;4905081;29;20087;-83
2022/08/25 08:47:05;;;;;;;23.65;14.32;;;25.10;98.60;;;;;;4905654;29;20032;-84
2022/08/25 08:49:54;;;;;;;14.57;10.48;;;25.30;98.70;;;;;;4905293;29;20123;-84
2022/08/25 08:52:31;;;;;;;21.05;9.98;;;25.50;98.40;;;;;;4904091;29;20036;-80
2022/08/25 08:55:01;;;;;;;18.83;12.32;;;25.50;98.00;;;;;;4903751;29;20041;-75
2022/08/25 08:57:29;;;;;;;21.15;11.52;;;25.40;98.00;;;;;;4903015;29;20029;-74
2022/08/25 09:00:00;;;;;;;15.57;9.02;;;25.50;98.10;;;;;;4903984;29;20115;-75
2022/08/25 09:02:42;;;;;;;18.40;10.10;;;25.60;97.60;;;;;;4903431;29;20060;-76
2022/08/25 09:05:15;;;;;;;14.85;9.63;;;25.70;97.50;;;;;;4903931;29;20451;-75
2022/08/25 09:07:49;;;;;;;15.20;9.82;;;25.70;97.20;;;;;;4904110;29;20120;-75
2022/08/25 09:10:16;;;;;;;11.63;8.85;;;25.70;97.10;;;;;;4902997;29;20513;-75
2022/08/25 09:13:10;;;;;;;19.40;9.40;;;25.70;97.20;;;;;;4903886;29;20224;-74
2022/08/25 09:18:50;;;;;;;15.88;9.70;;;25.80;96.80;;;;;;4904938;29;20078;-82
2022/08/25 09:21:34;;;;;;;21.08;9.88;;;25.90;96.90;;;;;;4904296;29;20407;-76
2022/08/25 09:24:17;;;;;;;15.85;9.63;;;25.90;96.40;;;;;;4904420;29;20569;-77
2022/08/25 09:27:20;;;;;;;12.68;9.15;;;25.80;96.40;;;;;;4904156;29;20040;-80
2022/08/25 09:29:59;;;;;;;12.30;8.90;;;25.60;96.50;;;;;;4903626;29;21273;-82
2022/08/25 09:32:32;;;;;;;21.88;10.15;;;25.70;96.40;;;;;;4903342;29;20048;-81
2022/08/25 09:35:00;;;;;;;14.50;8.95;;;25.80;96.30;;;;;;4904386;29;20482;-76
2022/08/25 09:37:26;;;;;;;17.98;9.13;;;26.00;96.00;;;;;;4904852;29;20115;-73
2022/08/25 09:39:51;;;;;;;13.02;7.95;;;26.20;95.30;;;;;;4904618;29;20119;-86
2022/08/25 09:42:18;;;;;;;11.60;8.52;;;26.20;95.40;;;;;;4904777;29;20028;-86
2022/08/25 09:44:45;;;;;;;14.20;9.10;;;26.20;95.30;;;;;;4903430;29;20028;-77
2022/08/25 09:47:17;;;;;;;16.60;7.82;;;26.30;95.00;;;;;;4903821;29;20110;-78
2022/08/25 09:49:50;;;;;;;16.30;9.57;;;26.10;94.80;;;;;;4905609;29;20035;-82
2022/08/25 09:52:32;;;;;;;13.02;8.18;;;26.10;94.90;;;;;;4904337;29;20043;-87
2022/08/25 09:55:27;;;;;;;10.45;6.90;;;26.30;94.70;;;;;;4902446;29;20033;-84
2022/08/25 09:57:55;;;;;;;17.38;8.63;;;26.30;94.40;;;;;;4904298;29;20058;-86
2022/08/25 10:00:21;;;;;;;15.27;7.70;;;26.30;94.10;;;;;;4904489;29;20417;-82
2022/08/25 10:03:04;;;;;;;13.05;8.95;;;26.10;94.20;;;;;;4902803;29;20024;-81
2022/08/25 10:05:33;;;;;;;12.32;8.27;;;25.90;94.50;;;;;;4902426;29;20031;-81
2022/08/25 10:08:02;;;;;;;17.73;9.57;;;25.80;94.50;;;;;;4903472;29;20043;-80
2022/08/25 10:10:31;;;;;;;9.77;7.60;;;25.70;94.70;;;;;;4903538;29;20047;-83
2022/08/25 10:12:59;;;;;;;15.90;8.43;;;25.60;94.80;;;;;;4902892;29;20029;-80
2022/08/25 10:15:34;;;;;;;14.70;7.60;;;25.50;94.90;;;;;;4906949;29;20625;-80
2022/08/25 10:18:22;;;;;;;14.90;8.65;;;25.60;95.20;;;;;;4906992;29;20501;-80
2022/08/25 10:21:16;;;;;;;16.45;8.75;;;25.50;95.10;;;;;;4905547;29;20049;-78
2022/08/25 10:23:45;;;;;;;15.68;8.82;;;25.70;95.40;;;;;;4907357;29;20032;-79
2022/08/25 10:26:22;;;;;;;15.10;7.97;;;25.80;95.40;;;;;;4906960;29;20391;-78
2022/08/25 10:29:14;;;;;;;15.32;7.93;;;26.20;94.70;;;;;;4906914;29;20048;-79
2022/08/25 10:32:23;;;;;;;12.15;7.55;;;26.50;94.40;;;;;;4907583;29;20481;-78
2022/08/25 10:34:57;;;;;;;12.23;8.20;;;26.70;93.60;;;;;;4899640;29;20043;-80
2022/08/25 10:37:36;;;;;;;31.10;20.42;;;26.70;93.00;;;;;;4906825;29;20039;-78
2022/08/25 10:40:11;;;;;;;13.20;8.40;;;26.60;93.50;;;;;;4907147;29;20037;-79
2022/08/25 10:42:53;;;;;;;13.00;8.10;;;26.50;93.30;;;;;;4906355;29;20040;-78
2022/08/25 10:48:19;;;;;;;12.00;6.70;;;26.60;93.00;;;;;;4906145;29;20139;-76
2022/08/25 10:50:59;;;;;;;14.75;9.02;;;26.90;92.50;;;;;;4907743;29;20035;-78
2022/08/25 10:53:48;;;;;;;16.55;9.30;;;27.20;92.00;;;;;;4906572;29;20035;-78
2022/08/25 10:56:21;;;;;;;10.75;6.65;;;27.40;91.90;;;;;;4906790;29;20079;-79
2022/08/25 10:59:06;;;;;;;14.98;6.75;;;27.60;91.30;;;;;;4907075;29;20028;-78
2022/08/25 11:02:04;;;;;;;7.40;6.47;;;27.50;91.40;;;;;;4905129;29;20165;-80
2022/08/25 11:05:11;;;;;;;12.73;7.38;;;27.40;91.80;;;;;;4906486;29;20436;-79
2022/08/25 11:07:41;;;;;;;24.27;17.23;;;27.60;91.10;;;;;;4912620;29;20157;-90
2022/08/25 11:10:12;;;;;;;22.88;14.20;;;27.50;91.40;;;;;;4914257;29;20099;-90
2022/08/25 11:12:42;;;;;;;9.20;6.15;;;27.40;91.50;;;;;;4907334;29;20045;-85
2022/08/25 11:15:18;;;;;;;11.00;7.40;;;27.30;91.20;;;;;;4906981;29;20044;-88
2022/08/25 11:17:58;;;;;;;23.02;15.07;;;27.10;91.50;;;;;;4906151;29;20091;-82
2022/08/25 11:20:32;;;;;;;18.35;8.77;;;26.90;91.70;;;;;;4905933;29;20094;-81
2022/08/25 11:23:21;;;;;;;12.57;7.90;;;26.80;91.80;;;;;;4905332;29;20453;-81
2022/08/25 11:25:52;;;;;;;20.90;13.80;;;26.60;91.90;;;;;;4902866;29;20051;-87
2022/08/25 11:28:39;;;;;;;17.50;7.70;;;26.50;91.90;;;;;;4906567;29;20116;-78
2022/08/25 11:31:07;;;;;;;14.82;8.02;;;26.50;91.90;;;;;;4905575;29;20044;-80
2022/08/25 11:33:32;;;;;;;11.68;7.93;;;26.50;91.90;;;;;;4904945;29;20120;-78
2022/08/25 11:36:07;;;;;;;10.88;6.57;;;26.50;92.10;;;;;;4904604;29;20112;-81
2022/08/25 11:38:46;;;;;;;13.00;7.28;;;26.60;91.90;;;;;;4906500;29;20035;-83
2022/08/25 11:42:05;;;;;;;11.25;6.90;;;26.70;91.70;;;;;;4905482;29;20024;-82
2022/08/25 11:45:02;;;;;;;14.05;7.75;;;26.80;91.50;;;;;;4920410;29;20070;-86
2022/08/25 11:47:50;;;;;;;18.10;11.02;;;26.80;91.30;;;;;;4905454;29;20036;-83
2022/08/25 11:50:35;;;;;;;16.35;6.95;;;26.80;91.30;;;;;;4905365;29;20553;-81
2022/08/25 11:53:24;;;;;;;9.60;6.82;;;26.90;90.80;;;;;;4905033;29;20489;-80
2022/08/25 11:55:52;;;;;;;32.10;18.88;;;26.90;90.90;;;;;;4905469;29;20035;-82
2022/08/25 11:58:27;;;;;;;20.63;8.80;;;27.00;90.70;;;;;;4905553;29;20032;-84
2022/08/25 12:00:54;;;;;;;17.00;6.75;;;27.10;90.70;;;;;;4904964;29;20028;-83
2022/08/25 12:03:35;;;;;;;9.68;6.05;;;27.20;90.50;;;;;;4903932;29;20035;-84
2022/08/25 12:06:17;;;;;;;12.05;6.80;;;27.40;90.20;;;;;;4905826;29;20342;-81
2022/08/25 12:08:59;;;;;;;17.58;10.68;;;27.40;90.30;;;;;;4905970;29;20028;-88
2022/08/25 12:11:37;;;;;;;19.58;7.97;;;27.50;90.20;;;;;;4905371;29;20510;-83
2022/08/25 12:14:20;;;;;;;17.25;6.88;;;27.50;90.00;;;;;;4904866;29;20028;-80
2022/08/25 12:16:59;;;;;;;15.00;8.75;;;27.30;90.30;;;;;;4905308;29;20079;-78
2022/08/25 12:19:33;;;;;;;16.13;9.55;;;27.30;90.50;;;;;;4903818;29;20735;-77
2022/08/25 12:22:02;;;;;;;13.15;6.93;;;27.50;90.30;;;;;;4904260;29;20047;-82
2022/08/25 12:24:43;;;;;;;12.07;6.40;;;27.60;90.20;;;;;;4905202;29;20032;-80
2022/08/25 12:27:38;;;;;;;11.00;6.90;;;27.60;90.10;;;;;;4905495;29;20036;-80
2022/08/25 12:30:25;;;;;;;16.52;9.75;;;27.50;89.70;;;;;;4904991;29;20521;-86
2022/08/25 12:33:14;;;;;;;12.73;7.10;;;27.50;90.00;;;;;;4905391;29;20043;-87
2022/08/25 12:36:00;;;;;;;18.92;6.80;;;27.50;89.30;;;;;;4903881;29;20078;-80
2022/08/25 12:38:31;;;;;;;9.93;6.10;;;27.40;89.10;;;;;;4904975;29;20399;-79
2022/08/25 12:41:07;;;;;;;15.80;7.82;;;27.40;89.20;;;;;;4903952;29;20051;-77
2022/08/25 12:43:36;;;;;;;10.32;7.28;;;27.50;88.50;;;;;;4905043;29;20048;-70
2022/08/25 12:46:20;;;;;;;19.73;8.70;;;27.40;88.00;;;;;;4904277;29;20032;-75
2022/08/25 12:49:28;;;;;;;11.27;8.10;;;27.30;88.90;;;;;;4904951;29;20031;-73
2022/08/25 12:52:00;;;;;;;14.63;6.55;;;27.30;89.20;;;;;;4903300;29;20135;-74
2022/08/25 12:54:35;;;;;;;14.13;8.07;;;27.30;88.90;;;;;;4904649;29;20521;-85
2022/08/25 12:57:14;;;;;;;10.98;7.45;;;27.20;88.60;;;;;;4905237;29;20038;-82
2022/08/25 12:59:41;;;;;;;9.65;6.55;;;27.20;87.90;;;;;;4904529;29;20096;-78
2022/08/25 13:02:35;;;;;;;14.40;8.20;;;27.30;88.30;;;;;;4904064;29;20093;-85
2022/08/25 13:05:48;;;;;;;19.63;7.80;;;27.30;88.40;;;;;;4903529;29;20063;-76
2022/08/25 13:08:22;;;;;;;15.27;6.10;;;27.20;88.10;;;;;;4903114;29;20174;-81